KDNV/DNV METAR and TAF weather

Enter ICAO airport designator
Station Type Date Time Source
KDNV METAR 2018/07/21 03:55 UTC NOAA

KDNV 210355Z AUTO 25008KT 10SM SCT065 21/19 A2974 RMK AO2 T02070190


Station Type Date Time Source
KDNV Decoded METAR 2018/07/21 03:55 UTC NOAA

Danville, Vermilion County Airport, IL, United States (KDNV) 40-11-58N 087-35-44W
Jul 20, 2018 - 11:55 PM EDT / 2018.07.21 0355 UTC
Wind: from the WSW (250 degrees) at 9 MPH (8 KT):0
Visibility: 10 mile(s):0
Sky conditions: partly cloudy
Temperature: 69.3 F (20.7 C)
Dew Point: 66.2 F (19.0 C)
Relative Humidity: 89%
Pressure (altimeter): 29.74 in. Hg (1007 hPa)
ob: KDNV 210355Z AUTO 25008KT 10SM SCT065 21/19 A2974 RMK AO2 T02070190
cycle: 4

Station Type Date Time Source
KDNV TAF UTC NOAA

Error!


Example: see airport list